createdAt,value
2022-11-20T00:00:36.019Z,1007.9
2022-11-20T00:05:36.070Z,1007.8
2022-11-20T00:10:36.024Z,1007.7
2022-11-20T00:15:36.015Z,1007.6
2022-11-20T00:20:35.983Z,1007.6
2022-11-20T00:25:36.028Z,1007.5
2022-11-20T00:30:36.017Z,1007.6
2022-11-20T00:35:36.042Z,1007.5
2022-11-20T00:40:36.038Z,1007.4
2022-11-20T00:45:36.032Z,1007.3
2022-11-20T00:50:36.016Z,1007.3
2022-11-20T00:55:36.059Z,1007.2
2022-11-20T01:00:36.011Z,1007.0
2022-11-20T01:05:36.033Z,1007.0
2022-11-20T01:10:36.031Z,1006.9
2022-11-20T01:15:36.025Z,1006.9
2022-11-20T01:20:36.032Z,1006.8
2022-11-20T01:25:36.044Z,1006.8
2022-11-20T01:30:36.023Z,1006.8
2022-11-20T01:35:36.064Z,1006.7
2022-11-20T01:40:36.018Z,1006.6
2022-11-20T01:45:36.038Z,1006.5
2022-11-20T01:50:36.048Z,1006.4
2022-11-20T01:55:36.029Z,1006.3
2022-11-20T02:00:36.015Z,1006.2
2022-11-20T02:05:36.042Z,1006.2
2022-11-20T02:10:36.031Z,1006.2
2022-11-20T02:15:36.025Z,1006.2
2022-11-20T02:20:36.031Z,1006.2
2022-11-20T02:25:36.028Z,1006.0
2022-11-20T02:30:36.048Z,1005.8
2022-11-20T02:35:36.034Z,1005.8
2022-11-20T02:40:36.038Z,1005.6
2022-11-20T02:45:36.022Z,1005.5
2022-11-20T02:50:36.047Z,1005.4
2022-11-20T02:55:36.050Z,1005.3
2022-11-20T03:00:36.046Z,1005.2
2022-11-20T03:05:36.055Z,1005.1
2022-11-20T03:10:36.033Z,1005.0
2022-11-20T03:15:36.069Z,1004.9
2022-11-20T03:20:36.038Z,1004.9
2022-11-20T03:25:36.040Z,1004.8
2022-11-20T03:30:36.027Z,1004.8
2022-11-20T03:35:36.050Z,1004.6
2022-11-20T03:40:36.026Z,1004.5
2022-11-20T03:45:36.042Z,1004.5
2022-11-20T03:50:36.040Z,1004.4
2022-11-20T03:55:36.042Z,1004.4
2022-11-20T04:00:36.024Z,1004.3
2022-11-20T04:05:36.043Z,1004.1
2022-11-20T04:10:36.038Z,1003.9
2022-11-20T04:15:38.451Z,1003.9
2022-11-20T04:20:36.039Z,1004.0
2022-11-20T04:25:36.039Z,1004.0
2022-11-20T04:30:36.040Z,1003.9
2022-11-20T04:35:36.053Z,1003.9
2022-11-20T04:40:36.032Z,1003.8
2022-11-20T04:45:36.057Z,1003.7
2022-11-20T04:50:36.050Z,1003.6
2022-11-20T04:55:36.047Z,1003.5
2022-11-20T05:00:36.052Z,1003.4
2022-11-20T05:05:36.045Z,1003.4
2022-11-20T05:10:36.038Z,1003.4
2022-11-20T05:15:36.048Z,1003.2
2022-11-20T05:20:36.045Z,1003.1
2022-11-20T05:25:36.044Z,1003.0
2022-11-20T05:30:36.046Z,1003.0
2022-11-20T05:35:36.068Z,1002.9
2022-11-20T05:40:36.044Z,1002.9
2022-11-20T05:45:36.056Z,1002.8
2022-11-20T05:50:36.094Z,1002.8
2022-11-20T05:55:36.077Z,1002.8
2022-11-20T06:00:36.079Z,1002.8
2022-11-20T06:05:36.029Z,1002.7
2022-11-20T06:10:36.059Z,1002.6
2022-11-20T06:15:36.057Z,1002.6
2022-11-20T06:20:41.845Z,1002.6
2022-11-20T06:25:36.044Z,1002.6
2022-11-20T06:30:36.049Z,1002.5
2022-11-20T06:35:36.045Z,1002.6
2022-11-20T06:40:36.052Z,1002.3
2022-11-20T06:45:36.047Z,1002.2
2022-11-20T06:50:36.050Z,1002.2
2022-11-20T06:55:36.109Z,1002.1
2022-11-20T07:00:36.153Z,1002.1
2022-11-20T07:05:36.070Z,1002.1
2022-11-20T07:10:36.073Z,1002.0
2022-11-20T07:15:36.066Z,1002.0
2022-11-20T07:20:36.078Z,1002.0
2022-11-20T07:25:36.064Z,1002.0
2022-11-20T07:30:36.075Z,1001.9
2022-11-20T07:35:36.076Z,1001.9
2022-11-20T07:40:36.066Z,1001.9
2022-11-20T07:45:36.069Z,1001.8
2022-11-20T07:50:36.072Z,1001.9
2022-11-20T07:55:36.054Z,1002.0
2022-11-20T08:00:36.151Z,1002.0
2022-11-20T08:05:36.074Z,1002.0
2022-11-20T08:10:36.090Z,1002.0
2022-11-20T08:15:36.060Z,1002.1
2022-11-20T08:20:36.080Z,1002.0
2022-11-20T08:25:36.057Z,1002.1
2022-11-20T08:30:36.080Z,1002.1
2022-11-20T08:35:36.087Z,1002.0
2022-11-20T08:40:36.081Z,1002.1
2022-11-20T08:45:36.076Z,1002.2
2022-11-20T08:50:36.093Z,1002.2
2022-11-20T08:55:36.071Z,1002.1
2022-11-20T09:00:36.164Z,1002.0
2022-11-20T09:05:36.092Z,1001.9
2022-11-20T09:10:36.080Z,1001.9
2022-11-20T09:15:36.103Z,1002.0
2022-11-20T09:20:36.142Z,1002.0
2022-11-20T09:25:36.087Z,1002.0
2022-11-20T09:30:36.095Z,1002.0
2022-11-20T09:35:36.117Z,1002.0
2022-11-20T09:40:36.087Z,1002.0
2022-11-20T09:45:36.096Z,1002.0
2022-11-20T09:50:36.093Z,1002.0
2022-11-20T09:55:36.088Z,1002.0
2022-11-20T10:00:36.178Z,1001.9
2022-11-20T10:05:36.122Z,1002.0
2022-11-20T10:10:39.767Z,1001.9
2022-11-20T10:15:36.098Z,1002.0
2022-11-20T10:20:36.113Z,1002.0
2022-11-20T10:25:36.109Z,1002.0
2022-11-20T10:30:36.113Z,1002.0
2022-11-20T10:35:36.186Z,1001.9
2022-11-20T10:40:36.111Z,1001.9
2022-11-20T10:45:36.116Z,1001.8
2022-11-20T10:50:36.226Z,1001.8
2022-11-20T10:55:36.131Z,1001.9
2022-11-20T11:00:36.233Z,1001.8
2022-11-20T11:05:36.179Z,1001.7
2022-11-20T11:10:36.182Z,1001.6
2022-11-20T11:15:36.144Z,1001.7
2022-11-20T11:20:36.130Z,1001.7
2022-11-20T11:25:36.155Z,1001.7
2022-11-20T11:30:36.126Z,1001.6
2022-11-20T11:35:36.200Z,1001.7
2022-11-20T11:40:36.200Z,1001.6
2022-11-20T11:45:36.148Z,1001.5
2022-11-20T11:50:36.123Z,1001.5
2022-11-20T11:55:36.141Z,1001.5
2022-11-20T12:00:36.140Z,1001.6
2022-11-20T12:05:36.144Z,1001.6
2022-11-20T12:10:36.157Z,1001.6
2022-11-20T12:15:36.142Z,1001.6
2022-11-20T12:20:36.136Z,1001.5
2022-11-20T12:25:36.173Z,1001.4
2022-11-20T12:30:36.144Z,1001.4
2022-11-20T12:35:36.155Z,1001.3
2022-11-20T12:40:36.164Z,1001.3
2022-11-20T12:45:36.149Z,1001.2
2022-11-20T12:50:47.568Z,1001.3
2022-11-20T12:55:36.148Z,1001.2
2022-11-20T13:00:36.150Z,1001.2
2022-11-20T13:05:36.123Z,1001.2
2022-11-20T13:10:36.165Z,1001.1
2022-11-20T13:15:36.149Z,1001.2
2022-11-20T13:20:36.155Z,1001.2
2022-11-20T13:25:36.156Z,1001.2
2022-11-20T13:30:36.161Z,1001.1
2022-11-20T13:35:36.150Z,1001.3
2022-11-20T13:40:36.161Z,1001.3
2022-11-20T13:45:36.140Z,1001.3
2022-11-20T13:50:36.163Z,1001.2
2022-11-20T13:55:36.155Z,1001.3
2022-11-20T14:00:36.194Z,1001.4
2022-11-20T14:05:36.147Z,1001.3
2022-11-20T14:10:36.164Z,1001.4
2022-11-20T14:15:40.424Z,1001.4
2022-11-20T14:20:36.168Z,1001.4
2022-11-20T14:25:36.161Z,1001.4
2022-11-20T14:30:36.172Z,1001.4
2022-11-20T14:35:36.147Z,1001.4
2022-11-20T14:40:36.161Z,1001.3
2022-11-20T14:45:36.148Z,1001.4
2022-11-20T14:50:36.160Z,1001.5
2022-11-20T14:55:36.166Z,1001.5
2022-11-20T15:00:36.232Z,1001.4
2022-11-20T15:05:36.153Z,1001.4
2022-11-20T15:10:36.174Z,1001.4
2022-11-20T15:15:36.151Z,1001.4
2022-11-20T15:20:36.169Z,1001.4
2022-11-20T15:25:36.167Z,1001.5
2022-11-20T15:30:36.180Z,1001.5
2022-11-20T15:35:36.182Z,1001.5
2022-11-20T15:40:36.188Z,1001.5
2022-11-20T15:45:36.158Z,1001.5
2022-11-20T15:50:36.165Z,1001.4
2022-11-20T15:55:36.168Z,1001.5
2022-11-20T16:00:36.226Z,1001.4
2022-11-20T16:05:36.208Z,1001.5
2022-11-20T16:10:36.227Z,1001.5
2022-11-20T16:15:36.162Z,1001.6
2022-11-20T16:20:36.174Z,1001.8
2022-11-20T16:25:36.167Z,1002.0
2022-11-20T16:30:36.239Z,1002.0
2022-11-20T16:35:36.186Z,1001.9
2022-11-20T16:40:36.175Z,1001.9
2022-11-20T16:45:36.163Z,1002.0
2022-11-20T16:50:36.145Z,1002.0
2022-11-20T16:55:36.153Z,1002.1
2022-11-20T17:00:36.172Z,1002.1
2022-11-20T17:05:36.177Z,1002.1
2022-11-20T17:10:36.199Z,1002.2
2022-11-20T17:15:36.204Z,1002.2
2022-11-20T17:20:36.176Z,1002.4
2022-11-20T17:25:36.180Z,1002.6
2022-11-20T17:30:36.223Z,1002.6
2022-11-20T17:35:36.195Z,1002.6
2022-11-20T17:40:36.184Z,1002.6
2022-11-20T17:45:36.177Z,1002.7
2022-11-20T17:50:36.146Z,1002.8
2022-11-20T17:55:36.202Z,1002.8
2022-11-20T18:00:36.168Z,1002.8
2022-11-20T18:05:36.204Z,1002.8
2022-11-20T18:10:36.166Z,1002.7
2022-11-20T18:15:36.196Z,1002.7
2022-11-20T18:20:39.854Z,1002.8
2022-11-20T18:25:36.231Z,1002.8
2022-11-20T18:30:36.232Z,1002.8
2022-11-20T18:35:36.192Z,1002.8
2022-11-20T18:40:36.212Z,1002.9
2022-11-20T18:45:36.160Z,1002.9
2022-11-20T18:50:36.176Z,1002.9
2022-11-20T18:55:36.182Z,1002.9
2022-11-20T19:00:36.191Z,1002.9
2022-11-20T19:05:36.235Z,1002.7
2022-11-20T19:10:36.172Z,1002.8
2022-11-20T19:15:36.162Z,1002.7
2022-11-20T19:20:36.189Z,1002.8
2022-11-20T19:25:38.322Z,1002.8
2022-11-20T19:30:36.176Z,1002.8
2022-11-20T19:35:36.272Z,1002.8
2022-11-20T19:40:36.168Z,1002.8
2022-11-20T19:45:36.181Z,1002.8
2022-11-20T19:50:36.231Z,1002.8
2022-11-20T19:55:36.176Z,1002.8
2022-11-20T20:00:36.195Z,1002.8
2022-11-20T20:05:36.182Z,1002.9
2022-11-20T20:10:36.193Z,1002.9
2022-11-20T20:15:36.168Z,1003.0
2022-11-20T20:20:36.188Z,1003.0
2022-11-20T20:25:36.202Z,1003.0
2022-11-20T20:30:36.182Z,1003.0
2022-11-20T20:35:36.194Z,1003.0
2022-11-20T20:40:36.176Z,1002.9
2022-11-20T20:45:36.217Z,1002.9
2022-11-20T20:50:36.190Z,1003.0
2022-11-20T20:55:36.186Z,1003.1
2022-11-20T21:00:36.190Z,1003.0
2022-11-20T21:05:36.196Z,1003.0
2022-11-20T21:10:36.194Z,1002.9
2022-11-20T21:15:36.191Z,1002.9
2022-11-20T21:20:36.190Z,1002.9
2022-11-20T21:25:36.182Z,1002.9
2022-11-20T21:30:36.199Z,1002.9
2022-11-20T21:35:36.171Z,1003.0
2022-11-20T21:40:36.197Z,1003.0
2022-11-20T21:45:36.245Z,1002.9
2022-11-20T21:50:36.177Z,1002.7
2022-11-20T21:55:36.231Z,1002.7
2022-11-20T22:00:36.197Z,1002.8
2022-11-20T22:05:36.197Z,1002.8
2022-11-20T22:10:36.180Z,1002.8
2022-11-20T22:15:59.263Z,1002.8
2022-11-20T22:20:36.185Z,1002.8
2022-11-20T22:25:36.202Z,1002.8
2022-11-20T22:30:36.181Z,1002.8
2022-11-20T22:35:36.225Z,1002.7
2022-11-20T22:40:36.193Z,1002.6
2022-11-20T22:45:36.197Z,1002.7
2022-11-20T22:50:36.178Z,1002.6
2022-11-20T22:55:36.197Z,1002.6
2022-11-20T23:00:36.203Z,1002.5
2022-11-20T23:05:36.191Z,1002.4
2022-11-20T23:10:36.198Z,1002.4
2022-11-20T23:15:36.194Z,1002.4
2022-11-20T23:20:36.183Z,1002.6
2022-11-20T23:25:36.187Z,1002.6
2022-11-20T23:30:36.206Z,1002.7
2022-11-20T23:35:36.191Z,1002.7
2022-11-20T23:40:40.134Z,1002.6
2022-11-20T23:45:36.192Z,1002.6
2022-11-20T23:50:36.199Z,1002.5
2022-11-20T23:55:36.192Z,1002.4
